Main page
METAR-TAF:

METAR-TAF

Airports :

Djanet Inedbirene Airport

Djanet, Algeria

latitude: 24-33N, longitude: 009-28E, elevation: 1054 m

Current weather observation

The report was made 1 hour and 1 minutes ago, at 07:00 UTC
Wind 3 kt from the West
Temperature 10°C
Humidity 29%
Pressure 1020 hPa
Visibility 10 km or more
no clouds below 1500 m and no cumulonimbus

METAR: DAAJ 080700Z 27003KT CAVOK 10/M07 Q1020

Time: 09:01 (08:01 UTC)

Forecast

The report was made 3 hours and 1 minutes ago, at 05:00 UTC
Forecast valid from 08 at 06 UTC to 09 at 06 UTC
Wind 8 kt from the East
Visibility 10 km or more
no clouds below 1500 m and no cumulonimbus

TAF: DAAJ 080500Z 0806/0906 08008KT CAVOK

Weather observations and forecasts of more than 4000 airports (METAR and TAF reports).

The available stations are represented by yellow and red dots on the map.

Hover mouse over dot to see the name of the station.

Then click to see weather observations and forecasts.

To change the map : click on the green buttons with a black cross to zoom in, on the green button with a dash to zoom out, or on the green arrows for adjacent maps.


METAR-TAF: